Time;durP1;ratioP1;P1;durP2;ratioP2;P2;SDS_P1;SDS_P2;PMS_P1;PMS_P2;Temp;Humidity;BMP_temperature;BMP_pressure;BME280_temperature;BME280_humidity;BME280_pressure;Samples;Min_cycle;Max_cycle;Signal;HPM_P1;HPM_P2
2021/03/02 00:02:01;;;;;;;77.27;37.03;;;3.30;99.90;;;;;;5019068;28;20211;-82
2021/03/02 00:04:29;;;;;;;75.87;34.77;;;3.40;99.90;;;;;;5002840;28;20242;-83
2021/03/02 00:06:58;;;;;;;78.13;34.83;;;3.30;99.90;;;;;;5025771;28;20202;-82
2021/03/02 00:09:27;;;;;;;76.10;35.77;;;3.30;99.90;;;;;;5021228;28;20211;-82
2021/03/02 00:11:55;;;;;;;75.13;34.97;;;3.30;99.90;;;;;;5043932;28;20201;-82
2021/03/02 00:14:22;;;;;;;79.13;35.67;;;3.30;99.90;;;;;;5033696;28;20233;-83
2021/03/02 00:16:58;;;;;;;74.93;35.83;;;3.40;99.90;;;;;;5024726;28;20226;-82
2021/03/02 00:19:33;;;;;;;71.87;34.47;;;3.30;99.90;;;;;;5038151;28;20210;-81
2021/03/02 00:22:09;;;;;;;70.50;34.07;;;3.40;99.90;;;;;;5014060;28;20657;-82
2021/03/02 00:24:38;;;;;;;76.30;34.90;;;3.40;99.90;;;;;;5019784;28;20283;-81
2021/03/02 00:27:06;;;;;;;74.93;33.97;;;3.30;99.90;;;;;;5015571;28;20212;-83
2021/03/02 00:29:34;;;;;;;69.00;34.20;;;3.30;99.90;;;;;;5037845;28;20196;-80
2021/03/02 00:32:03;;;;;;;72.23;33.90;;;3.30;99.90;;;;;;5026004;28;20469;-82
2021/03/02 00:34:32;;;;;;;69.43;32.63;;;3.30;99.90;;;;;;5016939;28;20223;-81
2021/03/02 00:37:00;;;;;;;68.10;34.70;;;3.30;99.90;;;;;;5016780;28;20195;-82
2021/03/02 00:39:30;;;;;;;67.37;32.77;;;3.20;99.90;;;;;;5017769;28;20758;-82
2021/03/02 00:41:57;;;;;;;66.80;32.00;;;3.30;99.90;;;;;;5019196;28;20202;-83
2021/03/02 00:44:25;;;;;;;65.77;33.00;;;3.20;99.90;;;;;;5011582;28;20217;-82
2021/03/02 00:46:53;;;;;;;66.20;32.40;;;3.20;99.90;;;;;;5019541;28;20203;-81
2021/03/02 00:49:24;;;;;;;69.00;31.83;;;3.20;99.90;;;;;;5028874;28;20199;-82
2021/03/02 00:51:51;;;;;;;65.20;32.40;;;3.20;99.90;;;;;;5030546;28;20185;-83
2021/03/02 00:54:19;;;;;;;66.97;32.00;;;3.20;99.90;;;;;;5033015;28;20324;-82
2021/03/02 00:56:46;;;;;;;71.80;33.27;;;3.20;99.90;;;;;;5015186;28;20232;-82
2021/03/02 00:59:15;;;;;;;65.37;31.93;;;3.20;99.90;;;;;;5016078;28;20207;-82
2021/03/02 01:01:42;;;;;;;66.97;32.37;;;3.20;99.90;;;;;;5016691;28;20322;-82
2021/03/02 01:04:10;;;;;;;66.40;32.23;;;3.20;99.90;;;;;;5009883;28;20795;-81
2021/03/02 01:06:38;;;;;;;65.43;31.77;;;3.20;99.90;;;;;;4997152;28;20286;-81
2021/03/02 01:09:08;;;;;;;68.93;31.97;;;3.20;99.90;;;;;;5011318;28;20201;-83
2021/03/02 01:11:36;;;;;;;66.10;32.37;;;3.10;99.90;;;;;;5014081;28;20508;-81
2021/03/02 01:14:03;;;;;;;63.67;29.93;;;3.20;99.90;;;;;;5017977;28;20246;-81
2021/03/02 01:16:31;;;;;;;64.30;30.83;;;3.20;99.90;;;;;;5011370;28;20235;-82
2021/03/02 01:18:59;;;;;;;67.70;30.77;;;3.20;99.90;;;;;;5021573;28;20204;-83
2021/03/02 01:21:27;;;;;;;68.30;31.13;;;3.20;99.90;;;;;;5018987;28;20196;-82
2021/03/02 01:23:55;;;;;;;63.10;30.13;;;3.20;99.90;;;;;;5021178;28;20206;-83
2021/03/02 01:26:23;;;;;;;56.00;28.43;;;3.10;99.90;;;;;;5028905;28;20234;-82
2021/03/02 01:28:50;;;;;;;63.87;30.17;;;3.10;99.90;;;;;;5029597;28;20684;-82
2021/03/02 01:31:18;;;;;;;60.87;29.73;;;3.10;99.90;;;;;;5015213;28;20925;-82
2021/03/02 01:33:46;;;;;;;56.43;27.73;;;3.10;99.90;;;;;;5010142;28;20220;-82
2021/03/02 01:36:13;;;;;;;55.53;27.97;;;3.20;99.90;;;;;;5013276;28;20206;-81
2021/03/02 01:38:41;;;;;;;60.23;28.80;;;3.10;99.90;;;;;;5013401;28;20451;-82
2021/03/02 01:41:09;;;;;;;56.10;28.70;;;3.20;99.90;;;;;;5009559;28;20204;-82
2021/03/02 01:43:37;;;;;;;58.83;28.70;;;3.20;99.90;;;;;;5017737;28;20704;-83
2021/03/02 01:46:06;;;;;;;58.97;27.77;;;3.20;99.90;;;;;;5008624;28;20421;-82
2021/03/02 01:48:35;;;;;;;58.63;29.00;;;3.20;99.90;;;;;;5014368;28;20637;-81
2021/03/02 01:51:03;;;;;;;60.17;29.83;;;3.20;99.90;;;;;;5017072;28;20728;-82
2021/03/02 01:53:31;;;;;;;67.83;30.47;;;3.20;99.90;;;;;;4992022;28;20295;-82
2021/03/02 01:55:59;;;;;;;61.70;28.40;;;3.30;99.90;;;;;;5015404;28;20198;-81
2021/03/02 01:58:29;;;;;;;60.77;28.07;;;3.20;99.90;;;;;;5011117;28;20250;-82
2021/03/02 02:00:59;;;;;;;70.67;30.70;;;3.20;99.90;;;;;;5016661;28;20214;-81
2021/03/02 02:03:35;;;;;;;70.13;29.43;;;3.30;99.90;;;;;;5011103;28;20191;-82
2021/03/02 02:06:08;;;;;;;61.80;30.40;;;3.20;99.90;;;;;;5014934;28;20303;-81
2021/03/02 02:08:45;;;;;;;62.23;29.43;;;3.20;99.90;;;;;;5015985;28;20421;-80
2021/03/02 02:11:23;;;;;;;62.80;29.00;;;3.20;99.90;;;;;;5008945;28;20710;-82
2021/03/02 02:14:09;;;;;;;67.30;29.93;;;3.20;99.90;;;;;;5017335;28;20246;-81
2021/03/02 02:16:40;;;;;;;62.93;29.23;;;3.20;99.90;;;;;;5010600;28;20196;-82
2021/03/02 02:19:20;;;;;;;65.17;30.83;;;3.20;99.90;;;;;;5016065;28;20209;-82
2021/03/02 02:21:59;;;;;;;66.77;30.57;;;3.20;99.90;;;;;;5014590;28;20500;-82
2021/03/02 02:24:28;;;;;;;65.73;30.60;;;3.20;99.90;;;;;;5036873;28;20200;-82
2021/03/02 02:26:59;;;;;;;69.00;32.27;;;3.30;99.90;;;;;;5020963;28;20208;-82
2021/03/02 02:29:30;;;;;;;73.73;33.77;;;3.30;99.90;;;;;;5016986;28;20204;-83
2021/03/02 02:32:00;;;;;;;73.83;32.27;;;3.30;99.90;;;;;;5017876;28;20691;-82
2021/03/02 02:34:31;;;;;;;64.53;32.23;;;3.20;99.90;;;;;;5021847;28;20536;-84
2021/03/02 02:37:02;;;;;;;76.63;33.43;;;3.20;99.90;;;;;;5020883;28;20203;-82
2021/03/02 02:39:33;;;;;;;70.07;32.93;;;3.20;99.90;;;;;;5019408;28;20204;-83
2021/03/02 02:42:03;;;;;;;74.73;33.60;;;3.30;99.90;;;;;;5017850;28;20209;-81
2021/03/02 02:44:31;;;;;;;78.67;34.23;;;3.20;99.90;;;;;;5014507;28;20200;-82
2021/03/02 02:46:59;;;;;;;76.70;33.23;;;3.30;99.90;;;;;;5018553;28;20547;-80
2021/03/02 02:49:28;;;;;;;77.90;33.70;;;3.30;99.90;;;;;;5038590;28;20209;-81
2021/03/02 02:51:56;;;;;;;73.33;33.97;;;3.30;99.90;;;;;;5041724;28;20582;-82
2021/03/02 02:54:25;;;;;;;82.70;34.70;;;3.40;99.90;;;;;;5042853;28;20227;-83
2021/03/02 02:56:54;;;;;;;84.50;35.77;;;3.30;99.90;;;;;;5037875;28;20448;-83
2021/03/02 02:59:24;;;;;;;78.80;34.40;;;3.30;99.90;;;;;;5025356;28;20745;-81
2021/03/02 03:01:56;;;;;;;84.57;36.10;;;3.30;99.90;;;;;;5014318;28;20596;-81
2021/03/02 03:04:29;;;;;;;77.67;33.30;;;3.30;99.90;;;;;;5013214;28;20212;-81
2021/03/02 03:06:59;;;;;;;81.03;35.50;;;3.30;99.90;;;;;;5012585;28;20207;-83
2021/03/02 03:09:27;;;;;;;77.93;34.77;;;3.30;99.90;;;;;;5011802;28;20224;-82
2021/03/02 03:11:59;;;;;;;84.60;36.70;;;3.30;99.90;;;;;;5015301;28;20208;-83
2021/03/02 03:14:50;;;;;;;85.30;36.17;;;3.30;99.90;;;;;;5035680;28;20387;-82
2021/03/02 03:17:20;;;;;;;81.53;37.17;;;3.30;99.90;;;;;;5021810;28;20221;-83
2021/03/02 03:19:49;;;;;;;86.80;36.53;;;3.30;99.90;;;;;;5016575;28;20205;-82
2021/03/02 03:22:18;;;;;;;83.27;36.63;;;3.30;99.90;;;;;;5018650;28;20197;-82
2021/03/02 03:24:45;;;;;;;78.90;35.90;;;3.30;99.90;;;;;;5015696;28;20595;-81
2021/03/02 03:27:14;;;;;;;92.27;38.70;;;3.30;99.90;;;;;;5015021;28;20537;-82
2021/03/02 03:29:44;;;;;;;90.43;38.63;;;3.30;99.90;;;;;;5016451;28;20197;-82
2021/03/02 03:32:15;;;;;;;86.37;37.20;;;3.40;99.90;;;;;;5010436;28;20665;-82
2021/03/02 03:34:44;;;;;;;89.83;37.77;;;3.40;99.90;;;;;;5013208;28;20712;-82
2021/03/02 03:37:12;;;;;;;86.13;35.17;;;3.40;99.90;;;;;;5010360;28;20393;-81
2021/03/02 03:39:41;;;;;;;88.70;37.27;;;3.40;99.90;;;;;;5013137;28;20551;-83
2021/03/02 03:42:09;;;;;;;85.97;36.80;;;3.40;99.90;;;;;;5013033;28;21074;-82
2021/03/02 03:44:36;;;;;;;88.87;38.40;;;3.40;99.90;;;;;;5017089;28;20774;-82
2021/03/02 03:47:05;;;;;;;97.37;40.50;;;3.40;99.90;;;;;;5015421;28;20211;-82
2021/03/02 03:49:33;;;;;;;87.10;38.63;;;3.40;99.90;;;;;;5010343;28;20666;-82
2021/03/02 03:52:05;;;;;;;97.60;39.40;;;3.40;99.90;;;;;;5010570;28;20224;-81
2021/03/02 03:54:33;;;;;;;93.97;40.57;;;3.40;99.90;;;;;;5012672;28;20310;-82
2021/03/02 03:57:02;;;;;;;98.50;41.27;;;3.40;99.90;;;;;;5012091;28;20230;-81
2021/03/02 03:59:29;;;;;;;89.67;38.43;;;3.40;99.90;;;;;;5012045;28;20201;-82
2021/03/02 04:01:57;;;;;;;91.30;39.37;;;3.40;99.90;;;;;;5015920;28;20266;-83
2021/03/02 04:04:26;;;;;;;90.53;38.80;;;3.40;99.90;;;;;;5013232;28;20765;-83
2021/03/02 04:06:56;;;;;;;88.83;39.20;;;3.50;99.90;;;;;;5013036;28;20264;-81
2021/03/02 04:09:24;;;;;;;96.27;39.83;;;3.50;99.90;;;;;;5009561;28;20203;-83
2021/03/02 04:11:54;;;;;;;95.27;40.40;;;3.50;99.90;;;;;;5009461;28;20201;-81
2021/03/02 04:14:21;;;;;;;92.07;38.17;;;3.40;99.90;;;;;;5011190;28;20312;-81
2021/03/02 04:16:48;;;;;;;94.33;40.30;;;3.50;99.90;;;;;;5018445;28;20200;-83
2021/03/02 04:19:16;;;;;;;93.27;38.87;;;3.50;99.90;;;;;;4991095;28;20242;-82
2021/03/02 04:21:44;;;;;;;88.63;38.83;;;3.50;99.90;;;;;;5015006;28;20221;-83
2021/03/02 04:24:12;;;;;;;88.00;39.83;;;3.50;99.90;;;;;;5019868;28;20443;-82
2021/03/02 04:26:40;;;;;;;88.13;39.73;;;3.60;99.90;;;;;;5019668;28;20307;-82
2021/03/02 04:29:07;;;;;;;81.60;37.57;;;3.60;99.90;;;;;;5015103;28;20225;-82
2021/03/02 04:31:35;;;;;;;80.47;37.60;;;3.60;99.90;;;;;;5019287;28;20535;-81
2021/03/02 04:34:03;;;;;;;94.53;39.30;;;3.60;99.90;;;;;;5028354;28;20231;-81
2021/03/02 04:36:30;;;;;;;88.20;37.63;;;3.60;99.90;;;;;;5010009;28;20205;-82
2021/03/02 04:38:58;;;;;;;92.20;39.63;;;3.60;99.90;;;;;;5011951;28;20236;-82
2021/03/02 04:41:26;;;;;;;90.73;39.87;;;3.70;99.90;;;;;;5014676;28;20201;-82
2021/03/02 04:43:54;;;;;;;92.80;40.30;;;3.70;99.90;;;;;;5013465;28;20201;-83
2021/03/02 04:46:21;;;;;;;81.50;38.53;;;3.70;99.90;;;;;;5017590;28;20720;-82
2021/03/02 04:48:49;;;;;;;94.43;39.93;;;3.70;99.90;;;;;;5009687;28;20225;-83
2021/03/02 04:51:16;;;;;;;88.17;40.10;;;3.60;99.90;;;;;;5016784;28;20212;-83
2021/03/02 04:53:45;;;;;;;77.37;38.20;;;3.70;99.90;;;;;;5013648;28;20714;-80
2021/03/02 04:56:13;;;;;;;82.40;38.87;;;3.70;99.90;;;;;;5012448;28;20439;-82
2021/03/02 04:58:42;;;;;;;89.87;39.00;;;3.70;99.90;;;;;;5017743;28;20510;-81
2021/03/02 05:01:09;;;;;;;86.50;41.43;;;3.70;99.90;;;;;;5022119;28;20195;-82
2021/03/02 05:03:41;;;;;;;92.60;39.73;;;3.80;99.90;;;;;;5037682;28;20441;-82
2021/03/02 05:06:09;;;;;;;84.80;40.17;;;3.80;99.90;;;;;;5017236;28;20220;-83
2021/03/02 05:08:37;;;;;;;85.43;38.43;;;3.70;99.90;;;;;;5012189;28;20284;-82
2021/03/02 05:11:04;;;;;;;87.80;39.17;;;3.80;99.90;;;;;;5011731;28;20476;-81
2021/03/02 05:13:32;;;;;;;85.50;37.90;;;3.70;99.90;;;;;;4996410;28;20461;-82
2021/03/02 05:16:12;;;;;;;96.23;39.67;;;3.70;99.90;;;;;;5016544;28;20213;-81
2021/03/02 05:18:40;;;;;;;87.77;39.53;;;3.80;99.90;;;;;;5013754;28;20220;-82
2021/03/02 05:21:08;;;;;;;92.93;41.20;;;3.80;99.90;;;;;;5017103;28;20339;-82
2021/03/02 05:23:36;;;;;;;88.60;39.20;;;3.80;99.90;;;;;;5019179;28;20228;-82
2021/03/02 05:26:04;;;;;;;92.77;39.50;;;3.80;99.90;;;;;;5027546;28;20258;-83
2021/03/02 05:28:32;;;;;;;80.43;38.87;;;3.80;99.90;;;;;;5043384;28;20202;-81
2021/03/02 05:31:00;;;;;;;97.67;38.80;;;3.80;99.90;;;;;;5041206;28;20202;-83
2021/03/02 05:33:28;;;;;;;87.10;39.33;;;4.00;99.90;;;;;;5042112;28;20194;-83
2021/03/02 05:35:59;;;;;;;82.80;39.17;;;3.80;99.90;;;;;;5036116;28;20438;-82
2021/03/02 05:38:27;;;;;;;86.23;37.90;;;3.90;99.90;;;;;;5031738;28;20239;-83
2021/03/02 05:40:54;;;;;;;89.33;39.57;;;3.90;99.90;;;;;;5025705;28;20213;-81
2021/03/02 05:43:22;;;;;;;83.27;38.07;;;3.90;99.90;;;;;;5019413;28;20746;-82
2021/03/02 05:45:50;;;;;;;85.20;36.83;;;3.90;99.90;;;;;;5015120;28;20220;-82
2021/03/02 05:48:18;;;;;;;82.43;39.83;;;3.80;99.90;;;;;;5012128;28;20200;-81
2021/03/02 05:50:47;;;;;;;91.30;39.63;;;3.90;99.90;;;;;;5007073;28;20198;-80
2021/03/02 05:53:15;;;;;;;88.47;38.33;;;3.90;99.90;;;;;;5008484;28;20672;-80
2021/03/02 05:55:42;;;;;;;84.20;39.47;;;3.90;99.90;;;;;;5020457;28;20230;-81
2021/03/02 05:58:10;;;;;;;88.53;38.13;;;3.90;99.90;;;;;;5007437;28;20256;-80
2021/03/02 06:00:38;;;;;;;85.90;38.77;;;3.90;99.90;;;;;;5005908;28;20229;-81
2021/03/02 06:03:06;;;;;;;87.07;40.20;;;3.90;99.90;;;;;;5015517;28;20654;-80
2021/03/02 06:05:34;;;;;;;83.53;38.80;;;3.90;99.90;;;;;;5014909;28;20459;-80
2021/03/02 06:08:07;;;;;;;82.43;38.33;;;4.00;99.90;;;;;;5013398;28;20212;-83
2021/03/02 06:10:35;;;;;;;90.13;38.47;;;4.00;99.90;;;;;;5011504;28;20525;-84
2021/03/02 06:13:03;;;;;;;82.93;38.50;;;4.00;99.90;;;;;;5019366;28;20202;-83
2021/03/02 06:15:31;;;;;;;79.47;34.93;;;4.00;99.90;;;;;;5008956;28;20998;-84
2021/03/02 06:18:11;;;;;;;93.70;39.97;;;4.00;99.90;;;;;;5011684;28;20223;-82
2021/03/02 06:20:41;;;;;;;84.00;37.90;;;4.00;99.90;;;;;;5002457;28;20557;-82
2021/03/02 06:23:27;;;;;;;85.37;37.87;;;4.00;99.90;;;;;;5013819;28;20213;-81
2021/03/02 06:25:57;;;;;;;85.70;37.97;;;4.00;99.90;;;;;;5012307;28;20949;-81
2021/03/02 06:28:36;;;;;;;83.60;36.97;;;4.00;99.90;;;;;;5013046;28;20200;-83
2021/03/02 06:31:04;;;;;;;87.27;38.07;;;4.00;99.90;;;;;;5019164;28;20213;-83
2021/03/02 06:33:31;;;;;;;74.93;36.07;;;4.00;99.90;;;;;;5012985;28;20202;-82
2021/03/02 06:36:00;;;;;;;79.73;36.13;;;4.00;99.90;;;;;;5025656;28;20202;-83
2021/03/02 06:38:31;;;;;;;80.40;36.63;;;4.00;99.90;;;;;;5004434;28;20740;-85
2021/03/02 06:41:00;;;;;;;76.73;36.90;;;4.10;99.90;;;;;;5010214;28;20196;-84
2021/03/02 06:43:33;;;;;;;80.83;36.33;;;4.10;99.90;;;;;;5010052;28;20197;-84
2021/03/02 06:46:05;;;;;;;79.20;37.07;;;4.10;99.90;;;;;;5013786;28;20194;-85
2021/03/02 06:48:50;;;;;;;74.50;34.53;;;4.20;99.90;;;;;;5014928;28;20204;-83
2021/03/02 06:51:27;;;;;;;77.23;36.33;;;4.20;99.90;;;;;;5005872;28;20614;-84
2021/03/02 06:54:05;;;;;;;74.63;36.37;;;4.40;99.90;;;;;;5009661;28;20859;-84
2021/03/02 06:56:40;;;;;;;81.10;36.77;;;4.30;99.90;;;;;;5011719;28;20538;-84
2021/03/02 06:59:12;;;;;;;74.13;35.53;;;4.40;99.90;;;;;;5010012;28;20222;-84
2021/03/02 07:01:41;;;;;;;75.20;36.57;;;4.50;99.90;;;;;;5014253;28;20202;-83
2021/03/02 07:04:12;;;;;;;72.07;34.60;;;4.50;99.90;;;;;;5004648;28;20207;-84
2021/03/02 07:06:42;;;;;;;75.30;35.13;;;4.50;99.90;;;;;;5018331;28;20191;-83
2021/03/02 07:09:13;;;;;;;75.63;37.10;;;4.50;99.90;;;;;;5008948;28;20207;-83
2021/03/02 07:11:43;;;;;;;75.57;36.27;;;4.60;99.90;;;;;;5008803;28;20652;-84
2021/03/02 07:14:13;;;;;;;82.80;36.03;;;4.50;99.90;;;;;;5007080;28;20242;-84
2021/03/02 07:16:43;;;;;;;84.87;36.53;;;4.50;99.90;;;;;;5005158;28;20273;-84
2021/03/02 07:19:16;;;;;;;81.13;36.97;;;4.40;99.90;;;;;;5010946;28;20270;-83
2021/03/02 07:21:50;;;;;;;78.33;36.13;;;4.50;99.90;;;;;;4999695;28;20202;-83
2021/03/02 07:24:26;;;;;;;82.27;35.07;;;4.50;99.90;;;;;;5006609;28;20209;-84
2021/03/02 07:27:02;;;;;;;78.17;35.80;;;4.50;99.90;;;;;;5001755;28;20363;-81
2021/03/02 07:29:30;;;;;;;84.67;36.67;;;4.50;99.90;;;;;;5006725;28;20807;-84
2021/03/02 07:31:58;;;;;;;77.83;37.07;;;4.60;99.90;;;;;;5001928;28;20218;-83
2021/03/02 07:34:27;;;;;;;76.73;36.00;;;4.60;99.90;;;;;;5001209;28;20227;-82
2021/03/02 07:36:55;;;;;;;75.43;34.07;;;4.60;99.90;;;;;;4982056;28;20598;-82
2021/03/02 07:39:27;;;;;;;78.13;36.30;;;4.70;99.90;;;;;;4988414;28;20680;-83
2021/03/02 07:41:55;;;;;;;72.53;34.10;;;4.80;99.90;;;;;;4987601;28;20376;-83
2021/03/02 07:44:23;;;;;;;74.27;33.43;;;4.80;99.70;;;;;;5006536;28;20205;-84
2021/03/02 07:46:55;;;;;;;76.43;34.90;;;4.80;99.90;;;;;;4990260;28;20365;-82
2021/03/02 07:49:36;;;;;;;75.87;35.63;;;4.80;99.70;;;;;;4992420;28;20283;-82
2021/03/02 07:52:22;;;;;;;76.83;34.83;;;5.00;99.60;;;;;;4997072;28;20207;-82
2021/03/02 07:55:19;;;;;;;70.60;32.43;;;4.90;99.30;;;;;;5003287;28;20239;-83
2021/03/02 07:57:49;;;;;;;70.83;34.80;;;5.00;99.40;;;;;;4984304;28;20210;-84
2021/03/02 08:00:24;;;;;;;77.33;36.13;;;5.00;98.30;;;;;;4996698;28;20198;-83
2021/03/02 08:03:20;;;;;;;75.23;36.70;;;5.20;98.20;;;;;;4998819;28;20200;-82
2021/03/02 08:05:49;;;;;;;71.17;34.43;;;5.20;97.10;;;;;;5019695;28;20217;-80
2021/03/02 08:08:37;;;;;;;80.17;36.90;;;5.10;96.80;;;;;;5009557;28;20292;-83
2021/03/02 08:11:32;;;;;;;76.63;35.40;;;5.00;97.20;;;;;;5016012;28;20488;-80
2021/03/02 08:14:01;;;;;;;70.53;36.33;;;5.10;97.20;;;;;;4998962;28;20460;-85
2021/03/02 08:16:52;;;;;;;69.60;33.70;;;5.20;96.20;;;;;;4992137;28;20245;-84
2021/03/02 08:19:38;;;;;;;82.47;37.30;;;5.30;96.50;;;;;;5000751;28;20805;-82
2021/03/02 08:22:59;;;;;;;75.67;36.50;;;5.30;96.00;;;;;;4993493;28;20592;-81
2021/03/02 08:25:28;;;;;;;66.33;34.93;;;5.50;95.80;;;;;;4993800;28;20651;-78
2021/03/02 08:28:00;;;;;;;74.53;34.67;;;5.60;95.00;;;;;;4987192;28;20283;-79
2021/03/02 08:30:32;;;;;;;72.77;35.60;;;5.60;94.60;;;;;;4994094;28;20851;-79
2021/03/02 08:33:03;;;;;;;71.40;36.33;;;5.70;94.30;;;;;;4979812;28;20732;-78
2021/03/02 08:35:34;;;;;;;65.87;34.70;;;5.60;94.50;;;;;;4989286;28;20565;-80
2021/03/02 08:38:03;;;;;;;67.27;34.67;;;5.80;94.60;;;;;;4999312;28;20701;-79
2021/03/02 08:40:43;;;;;;;72.10;33.40;;;5.90;93.50;;;;;;4999082;28;20203;-81
2021/03/02 08:43:16;;;;;;;64.13;33.37;;;6.00;93.40;;;;;;4993079;28;20528;-81
2021/03/02 08:45:46;;;;;;;63.63;33.13;;;5.90;92.90;;;;;;4986551;28;20212;-82
2021/03/02 08:48:23;;;;;;;63.77;32.50;;;6.00;92.90;;;;;;4992755;28;20209;-80
2021/03/02 08:50:53;;;;;;;70.23;33.83;;;6.00;92.80;;;;;;4995374;28;20738;-78
2021/03/02 08:53:33;;;;;;;63.87;32.90;;;6.00;92.70;;;;;;4997355;28;20469;-80
2021/03/02 08:56:02;;;;;;;64.47;32.37;;;6.00;93.10;;;;;;4996239;28;20226;-82
2021/03/02 08:58:34;;;;;;;65.83;31.23;;;6.10;92.90;;;;;;5007700;28;20202;-80
2021/03/02 09:01:04;;;;;;;66.97;33.77;;;6.40;92.90;;;;;;5002691;28;20441;-80
2021/03/02 09:03:32;;;;;;;64.80;31.57;;;6.60;92.30;;;;;;5004400;28;20211;-82
2021/03/02 09:06:11;;;;;;;63.90;31.93;;;6.70;92.10;;;;;;5001460;28;20208;-80
2021/03/02 09:08:48;;;;;;;72.10;34.20;;;6.70;91.60;;;;;;4998761;28;20201;-79
2021/03/02 09:11:18;;;;;;;70.80;32.80;;;6.60;91.40;;;;;;4998897;28;20209;-79
2021/03/02 09:13:48;;;;;;;61.20;31.43;;;6.60;91.40;;;;;;5009326;28;20200;-81
2021/03/02 09:16:36;;;;;;;63.23;31.20;;;6.50;91.40;;;;;;5015492;28;20237;-79
2021/03/02 09:19:11;;;;;;;62.17;30.83;;;6.50;91.50;;;;;;5005483;28;20509;-79
2021/03/02 09:21:40;;;;;;;62.80;30.10;;;6.60;91.70;;;;;;4994589;28;20592;-79
2021/03/02 09:24:12;;;;;;;64.40;30.63;;;6.50;91.60;;;;;;4999774;28;20199;-79
2021/03/02 09:26:39;;;;;;;61.43;30.73;;;6.70;91.60;;;;;;4998665;28;20210;-79
2021/03/02 09:29:10;;;;;;;60.40;30.57;;;6.90;90.80;;;;;;5000461;28;20528;-81
2021/03/02 09:31:38;;;;;;;57.60;30.50;;;7.00;90.70;;;;;;5003556;28;20214;-81
2021/03/02 09:34:06;;;;;;;60.03;30.03;;;6.70;90.70;;;;;;5003141;28;20575;-80
2021/03/02 09:36:34;;;;;;;58.03;29.27;;;6.80;90.90;;;;;;5022114;28;20190;-79
2021/03/02 09:39:21;;;;;;;52.20;27.73;;;6.70;90.90;;;;;;5003604;28;20199;-78
2021/03/02 09:41:49;;;;;;;54.83;27.80;;;6.90;90.60;;;;;;5001672;28;20263;-81
2021/03/02 09:44:20;;;;;;;57.47;29.17;;;6.80;90.30;;;;;;4990418;28;20234;-80
2021/03/02 09:46:48;;;;;;;58.07;28.87;;;6.50;90.60;;;;;;4993939;28;20272;-81
2021/03/02 09:49:41;;;;;;;57.67;28.73;;;6.40;91.10;;;;;;4989065;28;20695;-82
2021/03/02 09:52:25;;;;;;;59.90;29.17;;;6.40;91.70;;;;;;4993861;28;20571;-79
2021/03/02 09:55:13;;;;;;;63.00;31.80;;;6.40;91.60;;;;;;4996818;28;20250;-80
2021/03/02 09:57:58;;;;;;;63.53;30.87;;;6.50;92.00;;;;;;5002227;28;20194;-79
2021/03/02 10:00:29;;;;;;;64.20;32.00;;;6.50;91.60;;;;;;4991965;28;20566;-81
2021/03/02 10:02:58;;;;;;;61.93;30.23;;;6.60;91.40;;;;;;4995497;28;20206;-81
2021/03/02 10:05:32;;;;;;;57.43;28.40;;;6.70;91.50;;;;;;4996105;28;20770;-81
2021/03/02 10:08:14;;;;;;;54.80;28.80;;;6.70;90.60;;;;;;4996471;28;20210;-79
2021/03/02 10:10:42;;;;;;;62.40;30.33;;;6.50;90.90;;;;;;4993879;28;20292;-80
2021/03/02 10:13:10;;;;;;;63.07;30.27;;;6.60;91.80;;;;;;4994622;28;20248;-80
2021/03/02 10:15:39;;;;;;;63.57;30.87;;;6.80;91.70;;;;;;5001139;28;20767;-81
2021/03/02 10:18:23;;;;;;;61.30;31.30;;;7.00;91.00;;;;;;4998337;28;20198;-80
2021/03/02 10:21:05;;;;;;;65.03;31.13;;;7.20;90.60;;;;;;4995080;28;20198;-82
2021/03/02 10:23:33;;;;;;;61.13;29.60;;;7.20;90.40;;;;;;4990394;28;20416;-83
2021/03/02 10:26:01;;;;;;;54.33;26.83;;;7.00;90.20;;;;;;4990765;28;20211;-80
2021/03/02 10:28:30;;;;;;;56.33;29.10;;;6.60;90.40;;;;;;4994023;28;20275;-81
2021/03/02 10:30:59;;;;;;;65.60;31.10;;;6.30;90.90;;;;;;4991621;28;20240;-79
2021/03/02 10:33:27;;;;;;;58.27;29.63;;;6.20;91.30;;;;;;4992260;28;20327;-80
2021/03/02 10:35:56;;;;;;;62.30;30.17;;;6.20;91.40;;;;;;4994183;28;20477;-79
2021/03/02 10:38:23;;;;;;;58.60;29.13;;;6.10;91.60;;;;;;4995549;28;20201;-81
2021/03/02 10:40:51;;;;;;;55.20;28.73;;;6.20;91.80;;;;;;5008492;28;20407;-80
2021/03/02 10:43:18;;;;;;;58.37;29.30;;;6.20;91.50;;;;;;5008692;28;20453;-81
2021/03/02 10:45:46;;;;;;;56.00;28.27;;;6.20;91.70;;;;;;5016316;28;20214;-79
2021/03/02 10:48:16;;;;;;;58.30;28.43;;;6.30;91.40;;;;;;5017383;28;20484;-80
2021/03/02 10:50:46;;;;;;;59.30;28.17;;;6.30;91.30;;;;;;4993628;28;20248;-80
2021/03/02 10:53:15;;;;;;;56.97;28.30;;;6.30;91.30;;;;;;4994821;28;20238;-77
2021/03/02 10:55:43;;;;;;;57.20;29.37;;;6.30;91.30;;;;;;4999202;28;20228;-82
2021/03/02 10:58:10;;;;;;;55.37;28.27;;;6.40;91.50;;;;;;5004310;28;20231;-78
2021/03/02 11:00:38;;;;;;;57.27;27.40;;;6.50;91.30;;;;;;4994291;28;20274;-81
2021/03/02 11:03:07;;;;;;;60.20;29.80;;;6.50;91.10;;;;;;4996180;28;20451;-79
2021/03/02 11:05:36;;;;;;;57.17;29.10;;;6.50;91.10;;;;;;5002076;28;20370;-78
2021/03/02 11:08:05;;;;;;;60.97;29.60;;;6.50;91.30;;;;;;4994681;28;20209;-79
2021/03/02 11:10:32;;;;;;;56.43;28.30;;;6.60;91.20;;;;;;4991322;28;20208;-80
2021/03/02 11:13:00;;;;;;;58.40;28.47;;;6.60;91.10;;;;;;4994596;28;20221;-81
2021/03/02 11:15:27;;;;;;;55.27;28.20;;;6.70;91.10;;;;;;4996740;28;20298;-80
2021/03/02 11:17:55;;;;;;;53.20;27.87;;;6.70;91.00;;;;;;4992852;28;20241;-82
2021/03/02 11:20:36;;;;;;;51.30;26.57;;;6.80;91.00;;;;;;4993922;28;20202;-81
2021/03/02 11:23:04;;;;;;;50.10;25.20;;;6.80;90.40;;;;;;4978668;28;20576;-79
2021/03/02 11:25:34;;;;;;;51.83;26.53;;;6.90;90.40;;;;;;5010110;28;20203;-81
2021/03/02 11:28:02;;;;;;;53.10;27.77;;;7.00;90.40;;;;;;4995128;28;20241;-79
2021/03/02 11:30:31;;;;;;;51.13;26.40;;;7.10;90.40;;;;;;4997941;28;20557;-78
2021/03/02 11:32:59;;;;;;;53.93;28.60;;;7.20;90.40;;;;;;4993626;28;20217;-80
2021/03/02 11:35:27;;;;;;;53.63;28.43;;;7.20;90.40;;;;;;5000391;28;20739;-78
2021/03/02 11:37:56;;;;;;;52.73;26.53;;;7.30;90.30;;;;;;4991838;28;20226;-80
2021/03/02 11:40:24;;;;;;;46.27;24.87;;;7.40;89.90;;;;;;5003261;28;20496;-81
2021/03/02 11:42:53;;;;;;;52.93;27.10;;;7.40;89.70;;;;;;5003469;28;20692;-78
2021/03/02 11:45:21;;;;;;;44.70;23.63;;;7.50;89.80;;;;;;4988714;28;20253;-81
2021/03/02 11:47:50;;;;;;;47.10;25.53;;;7.50;88.80;;;;;;4990208;28;20680;-80
2021/03/02 11:50:19;;;;;;;45.90;25.13;;;7.60;89.10;;;;;;4991127;28;20205;-80
2021/03/02 11:52:46;;;;;;;45.70;24.33;;;7.50;88.90;;;;;;5011542;28;20199;-80
2021/03/02 11:55:16;;;;;;;50.17;26.53;;;7.60;89.20;;;;;;5011050;28;20720;-81
2021/03/02 11:57:44;;;;;;;47.37;25.27;;;7.70;89.60;;;;;;4999612;28;20639;-77
2021/03/02 12:00:14;;;;;;;48.40;26.27;;;7.80;89.40;;;;;;4988503;28;20537;-80
2021/03/02 12:02:44;;;;;;;48.07;26.00;;;7.90;89.20;;;;;;4987631;28;20202;-82
2021/03/02 12:05:14;;;;;;;46.53;25.47;;;8.00;89.30;;;;;;4993170;28;20472;-80
2021/03/02 12:07:42;;;;;;;48.87;25.47;;;7.90;89.40;;;;;;4995868;28;20204;-80
2021/03/02 12:10:12;;;;;;;46.47;26.10;;;7.90;89.20;;;;;;5001414;28;20516;-80
2021/03/02 12:12:42;;;;;;;49.77;26.17;;;7.90;89.70;;;;;;5000668;28;20204;-79
2021/03/02 12:15:10;;;;;;;45.97;25.27;;;8.00;89.80;;;;;;4992119;28;20438;-81
2021/03/02 12:17:39;;;;;;;48.87;25.27;;;8.00;89.70;;;;;;4995249;28;20202;-78
2021/03/02 12:20:09;;;;;;;50.27;27.50;;;8.00;90.00;;;;;;4984369;28;20348;-80
2021/03/02 12:22:38;;;;;;;52.83;26.83;;;8.00;90.10;;;;;;4988800;28;20203;-80
2021/03/02 12:25:07;;;;;;;54.53;27.40;;;8.10;90.10;;;;;;4985933;28;20191;-81
2021/03/02 12:27:35;;;;;;;51.23;26.23;;;8.20;90.00;;;;;;4986806;28;20215;-80
2021/03/02 12:30:06;;;;;;;49.23;26.07;;;8.30;90.00;;;;;;4992327;28;20202;-79
2021/03/02 12:32:33;;;;;;;42.60;24.97;;;8.30;89.80;;;;;;4994510;28;20561;-81
2021/03/02 12:35:01;;;;;;;44.00;24.70;;;8.30;89.80;;;;;;4998592;28;20497;-78
2021/03/02 12:37:29;;;;;;;45.03;25.53;;;8.30;89.80;;;;;;5004521;28;20374;-78
2021/03/02 12:39:56;;;;;;;47.93;25.53;;;8.40;89.50;;;;;;5001047;28;20911;-79
2021/03/02 12:42:23;;;;;;;45.63;24.17;;;8.40;89.60;;;;;;5003602;28;20203;-81
2021/03/02 12:44:51;;;;;;;41.30;23.37;;;8.50;89.70;;;;;;5005883;28;20714;-81
2021/03/02 12:47:20;;;;;;;47.47;25.43;;;8.50;89.10;;;;;;5003286;28;20249;-81
2021/03/02 12:49:48;;;;;;;48.37;26.57;;;8.60;88.90;;;;;;4999408;28;20696;-79
2021/03/02 12:52:15;;;;;;;45.27;25.30;;;8.70;89.10;;;;;;4996514;28;20217;-80
2021/03/02 12:54:43;;;;;;;47.93;25.23;;;8.70;89.10;;;;;;4999506;28;20721;-78